createdAt,value
2024-05-09T00:00:43.837Z,88.56
2024-05-09T00:03:12.245Z,88.80
2024-05-09T00:05:41.097Z,88.54
2024-05-09T00:08:09.528Z,88.71
2024-05-09T00:10:39.089Z,89.17
2024-05-09T00:13:07.999Z,89.76
2024-05-09T00:15:36.446Z,90.08
2024-05-09T00:18:05.330Z,89.86
2024-05-09T00:20:38.799Z,90.36
2024-05-09T00:23:10.252Z,89.49
2024-05-09T00:25:38.094Z,89.12
2024-05-09T00:28:06.085Z,89.73
2024-05-09T00:30:36.133Z,90.80
2024-05-09T00:33:06.524Z,92.20
2024-05-09T00:35:35.545Z,92.85
2024-05-09T00:38:03.716Z,91.33
2024-05-09T00:40:41.600Z,92.54
2024-05-09T00:43:11.846Z,95.17
2024-05-09T00:45:40.302Z,96.94
2024-05-09T00:48:09.069Z,99.20
2024-05-09T00:50:39.895Z,99.90
2024-05-09T00:53:08.200Z,100.00
2024-05-09T00:55:35.776Z,100.00
2024-05-09T00:58:03.774Z,100.00
2024-05-09T01:00:37.974Z,100.00
2024-05-09T01:03:09.769Z,100.00
2024-05-09T01:05:39.674Z,100.00
2024-05-09T01:08:09.050Z,100.00
2024-05-09T01:10:37.752Z,100.00
2024-05-09T01:13:05.627Z,100.00
2024-05-09T01:15:33.939Z,100.00
2024-05-09T01:18:10.459Z,100.00
2024-05-09T01:20:42.468Z,100.00
2024-05-09T01:23:13.965Z,100.00
2024-05-09T01:25:43.806Z,100.00
2024-05-09T01:28:11.454Z,100.00
2024-05-09T01:30:39.091Z,100.00
2024-05-09T01:33:08.874Z,100.00
2024-05-09T01:35:38.686Z,100.00
2024-05-09T01:38:07.869Z,100.00
2024-05-09T01:40:38.792Z,100.00
2024-05-09T01:43:09.751Z,100.00
2024-05-09T01:45:38.725Z,100.00
2024-05-09T01:48:06.690Z,100.00
2024-05-09T01:50:39.469Z,100.00
2024-05-09T01:53:10.705Z,100.00
2024-05-09T01:55:38.576Z,100.00
2024-05-09T01:58:06.112Z,100.00
2024-05-09T02:00:39.139Z,100.00
2024-05-09T02:03:13.364Z,100.00
2024-05-09T02:05:47.709Z,100.00
2024-05-09T02:08:17.492Z,100.00
2024-05-09T02:10:46.380Z,100.00
2024-05-09T02:13:14.200Z,100.00
2024-05-09T02:15:41.982Z,100.00
2024-05-09T02:18:10.163Z,100.00
2024-05-09T02:20:38.734Z,100.00
2024-05-09T02:23:06.968Z,100.00
2024-05-09T02:25:35.026Z,100.00
2024-05-09T02:28:02.581Z,100.00
2024-05-09T02:30:38.570Z,100.00
2024-05-09T02:33:10.600Z,100.00
2024-05-09T02:35:40.022Z,100.00
2024-05-09T02:38:08.814Z,100.00
2024-05-09T02:40:38.763Z,100.00
2024-05-09T02:43:08.173Z,100.00
2024-05-09T02:45:36.346Z,100.00
2024-05-09T02:48:04.260Z,100.00
2024-05-09T02:50:37.916Z,100.00
2024-05-09T02:53:08.601Z,100.00
2024-05-09T02:55:38.026Z,100.00
2024-05-09T02:58:08.783Z,100.00
2024-05-09T03:00:39.921Z,100.00
2024-05-09T03:03:12.524Z,99.71
2024-05-09T03:05:43.136Z,97.65
2024-05-09T03:08:11.146Z,97.22
2024-05-09T03:10:39.529Z,94.22
2024-05-09T03:13:08.172Z,91.82
2024-05-09T03:15:36.164Z,92.94
2024-05-09T03:18:04.974Z,91.84
2024-05-09T03:20:35.065Z,90.62
2024-05-09T03:23:05.220Z,89.10
2024-05-09T03:25:33.412Z,86.39
2024-05-09T03:28:01.098Z,83.99
2024-05-09T03:30:38.967Z,79.95
2024-05-09T03:33:15.632Z,78.04
2024-05-09T03:35:43.813Z,78.32
2024-05-09T03:38:11.345Z,77.68
2024-05-09T03:40:45.329Z,77.56
2024-05-09T03:43:13.473Z,76.82
2024-05-09T03:45:42.323Z,74.76
2024-05-09T03:48:10.224Z,75.01
2024-05-09T03:50:38.268Z,75.12
2024-05-09T03:53:06.847Z,73.79
2024-05-09T03:55:34.692Z,73.84
2024-05-09T03:58:02.333Z,72.75
2024-05-09T04:00:37.095Z,72.47
2024-05-09T04:03:09.062Z,73.30
2024-05-09T04:05:40.689Z,71.96
2024-05-09T04:08:09.915Z,71.62
2024-05-09T04:10:37.805Z,71.74
2024-05-09T04:13:05.540Z,72.29
2024-05-09T04:15:33.882Z,70.77
2024-05-09T04:18:02.400Z,69.60
2024-05-09T04:20:37.689Z,70.27
2024-05-09T04:23:11.379Z,70.78
2024-05-09T04:25:43.598Z,70.12
2024-05-09T04:28:11.691Z,68.44
2024-05-09T04:30:41.122Z,66.69
2024-05-09T04:33:14.240Z,64.73
2024-05-09T04:35:43.307Z,65.29
2024-05-09T04:38:12.365Z,65.74
2024-05-09T04:40:40.167Z,63.44
2024-05-09T04:43:14.283Z,61.81
2024-05-09T04:45:41.753Z,60.09
2024-05-09T04:48:09.884Z,59.49
2024-05-09T04:50:39.321Z,59.96
2024-05-09T04:53:09.887Z,60.16
2024-05-09T04:55:40.069Z,59.34
2024-05-09T04:58:11.660Z,59.17
2024-05-09T05:00:40.493Z,59.84
2024-05-09T05:03:12.885Z,58.30
2024-05-09T05:05:43.698Z,57.95
2024-05-09T05:08:15.310Z,57.41
2024-05-09T05:10:43.278Z,56.96
2024-05-09T05:13:22.715Z,55.10
2024-05-09T05:15:58.241Z,54.85
2024-05-09T05:18:27.410Z,54.58
2024-05-09T05:20:55.776Z,54.90
2024-05-09T05:23:23.664Z,54.85
2024-05-09T05:25:55.060Z,55.39
2024-05-09T05:28:22.957Z,54.98
2024-05-09T05:30:50.584Z,54.72
2024-05-09T05:33:19.484Z,53.41
2024-05-09T05:35:47.585Z,53.37
2024-05-09T05:38:15.262Z,52.65
2024-05-09T05:40:42.844Z,51.54
2024-05-09T05:43:17.208Z,50.57
2024-05-09T05:45:45.341Z,50.02
2024-05-09T05:48:14.138Z,49.94
2024-05-09T05:50:42.878Z,49.83
2024-05-09T05:53:10.816Z,49.91
2024-05-09T05:55:39.886Z,50.06
2024-05-09T05:58:11.058Z,49.89
2024-05-09T06:00:40.366Z,49.73
2024-05-09T06:03:09.630Z,49.73
2024-05-09T06:05:43.310Z,49.38
2024-05-09T06:08:11.311Z,48.57
2024-05-09T06:10:40.722Z,48.95
2024-05-09T06:13:12.363Z,47.96
2024-05-09T06:15:40.820Z,47.79
2024-05-09T06:18:09.567Z,46.19
2024-05-09T06:20:39.868Z,46.14
2024-05-09T06:23:08.801Z,46.44
2024-05-09T06:25:36.602Z,47.31
2024-05-09T06:28:05.111Z,47.40
2024-05-09T06:30:38.720Z,47.50
2024-05-09T06:33:10.782Z,47.10
2024-05-09T06:35:40.688Z,47.42
2024-05-09T06:38:09.012Z,47.27
2024-05-09T06:40:40.807Z,47.26
2024-05-09T06:43:13.498Z,47.62
2024-05-09T06:45:41.245Z,46.84
2024-05-09T06:48:09.424Z,45.94
2024-05-09T06:50:39.331Z,46.23
2024-05-09T06:53:08.285Z,45.51
2024-05-09T06:55:36.688Z,45.60
2024-05-09T06:58:05.497Z,45.81
2024-05-09T07:00:38.904Z,45.82
2024-05-09T07:03:10.116Z,46.05
2024-05-09T07:05:38.366Z,45.50
2024-05-09T07:08:06.417Z,45.34
2024-05-09T07:10:36.173Z,45.01
2024-05-09T07:13:11.690Z,45.48
2024-05-09T07:15:39.993Z,45.05
2024-05-09T07:18:11.754Z,44.45
2024-05-09T07:20:40.221Z,44.37
2024-05-09T07:23:13.910Z,43.09
2024-05-09T07:25:42.126Z,43.20
2024-05-09T07:28:20.765Z,44.02
2024-05-09T07:30:48.440Z,43.98
2024-05-09T07:33:21.217Z,43.98
2024-05-09T07:35:50.588Z,42.45
2024-05-09T07:38:18.214Z,43.27
2024-05-09T07:40:45.824Z,43.33
2024-05-09T07:43:14.663Z,43.46
2024-05-09T07:45:50.833Z,42.86
2024-05-09T07:52:37.288Z,41.49
2024-05-09T07:53:46.441Z,40.96
2024-05-09T07:56:18.350Z,40.71
2024-05-09T07:58:46.785Z,41.03
2024-05-09T08:01:14.393Z,41.19
2024-05-09T08:03:42.207Z,41.35
2024-05-09T08:06:09.983Z,41.48
2024-05-09T08:08:37.454Z,40.89
2024-05-09T08:11:06.450Z,40.65
2024-05-09T08:13:34.163Z,40.27
2024-05-09T08:16:01.712Z,41.23
2024-05-09T08:18:29.608Z,41.66
2024-05-09T08:20:57.850Z,41.66
2024-05-09T08:23:25.363Z,41.26
2024-05-09T08:25:53.036Z,42.43
2024-05-09T08:28:21.067Z,41.56
2024-05-09T08:30:48.714Z,41.16
2024-05-09T08:33:16.619Z,41.33
2024-05-09T08:35:44.458Z,40.14
2024-05-09T08:38:11.961Z,40.50
2024-05-09T08:40:39.600Z,40.24
2024-05-09T08:43:09.001Z,40.34
2024-05-09T08:45:38.856Z,40.00
2024-05-09T08:49:15.908Z,39.51
2024-05-09T08:51:43.844Z,39.53
2024-05-09T08:54:11.223Z,38.89
2024-05-09T08:56:39.649Z,38.28
2024-05-09T08:59:08.994Z,39.16
2024-05-09T09:01:37.973Z,39.39
2024-05-09T09:04:07.155Z,38.28
2024-05-09T09:06:34.789Z,37.94
2024-05-09T09:09:03.496Z,38.31
2024-05-09T09:11:31.024Z,39.15
2024-05-09T09:13:58.677Z,38.51
2024-05-09T09:16:35.836Z,39.03
2024-05-09T09:19:06.662Z,39.07
2024-05-09T09:21:35.053Z,38.50
2024-05-09T09:24:02.871Z,38.06
2024-05-09T09:26:30.813Z,38.06
2024-05-09T09:29:04.435Z,37.98
2024-05-09T09:31:32.138Z,38.31
2024-05-09T09:34:04.750Z,37.93
2024-05-09T09:36:32.691Z,38.57
2024-05-09T09:39:00.202Z,38.11
2024-05-09T09:41:27.993Z,38.55
2024-05-09T09:43:57.347Z,37.49
2024-05-09T09:46:24.788Z,37.00
2024-05-09T09:48:52.517Z,37.65
2024-05-09T09:51:20.387Z,38.51
2024-05-09T09:53:47.824Z,38.06
2024-05-09T09:56:15.411Z,37.71
2024-05-09T09:58:42.973Z,37.16
2024-05-09T10:01:10.527Z,37.13
2024-05-09T10:03:38.558Z,37.90
2024-05-09T10:06:06.947Z,36.98
2024-05-09T10:08:35.076Z,37.51
2024-05-09T10:11:04.072Z,38.20
2024-05-09T10:13:35.355Z,37.33
2024-05-09T10:16:10.365Z,36.42
2024-05-09T10:18:41.973Z,36.44
2024-05-09T10:21:19.382Z,36.79
2024-05-09T10:23:58.328Z,36.78
2024-05-09T10:26:35.755Z,36.02
2024-05-09T10:29:17.018Z,37.43
2024-05-09T10:31:46.040Z,36.98
2024-05-09T10:34:23.805Z,36.72
2024-05-09T10:36:52.750Z,34.85
2024-05-09T10:39:21.354Z,35.08
2024-05-09T10:41:49.585Z,35.55
2024-05-09T10:44:17.373Z,35.70
2024-05-09T10:46:46.149Z,35.61
2024-05-09T10:49:14.017Z,35.49
2024-05-09T10:51:41.799Z,34.90
2024-05-09T10:54:09.285Z,34.55
2024-05-09T10:56:36.916Z,35.20
2024-05-09T10:59:04.467Z,34.61
2024-05-09T11:01:32.132Z,33.99
2024-05-09T11:04:00.024Z,33.58
2024-05-09T11:06:27.763Z,33.47
2024-05-09T11:08:55.509Z,33.03
2024-05-09T11:11:23.139Z,33.50
2024-05-09T11:13:50.796Z,34.01
2024-05-09T11:16:20.625Z,34.94
2024-05-09T11:18:58.602Z,35.41
2024-05-09T11:21:26.971Z,35.00
2024-05-09T11:23:54.628Z,34.55
2024-05-09T11:26:22.750Z,34.63
2024-05-09T11:28:50.771Z,33.69
2024-05-09T11:31:18.957Z,33.97
2024-05-09T11:33:47.092Z,34.99
2024-05-09T11:36:14.820Z,35.02
2024-05-09T11:38:42.599Z,34.58
2024-05-09T11:41:18.030Z,34.28
2024-05-09T11:43:45.656Z,35.11
2024-05-09T11:46:13.622Z,35.44
2024-05-09T11:48:41.745Z,34.95
2024-05-09T11:51:09.428Z,35.18
2024-05-09T11:53:36.811Z,35.61
2024-05-09T11:56:04.839Z,35.12
2024-05-09T11:58:34.502Z,34.68
2024-05-09T12:01:02.247Z,33.82
2024-05-09T12:03:30.216Z,33.66
2024-05-09T12:05:58.051Z,32.93
2024-05-09T12:08:25.584Z,32.85
2024-05-09T12:10:53.850Z,33.53
2024-05-09T12:13:21.744Z,33.98
2024-05-09T12:15:49.476Z,34.32
2024-05-09T12:18:17.164Z,33.58
2024-05-09T12:20:44.960Z,33.86
2024-05-09T12:23:12.460Z,33.07
2024-05-09T12:25:40.367Z,33.38
2024-05-09T12:28:08.487Z,31.72
2024-05-09T12:30:40.030Z,32.03
2024-05-09T12:33:13.124Z,32.75
2024-05-09T12:35:44.086Z,32.04
2024-05-09T12:38:14.919Z,32.36
2024-05-09T12:40:42.867Z,32.43
2024-05-09T12:43:11.411Z,31.82
2024-05-09T12:45:40.392Z,31.38
2024-05-09T12:48:11.904Z,31.59
2024-05-09T12:50:40.568Z,31.01
2024-05-09T12:53:08.317Z,30.71
2024-05-09T12:55:44.479Z,30.73
2024-05-09T12:58:22.343Z,30.91
2024-05-09T13:00:51.698Z,30.48
2024-05-09T13:03:19.518Z,31.30
2024-05-09T13:05:47.375Z,31.97
2024-05-09T13:08:14.845Z,31.73
2024-05-09T13:10:42.617Z,31.34
2024-05-09T13:13:10.483Z,30.84
2024-05-09T13:15:38.238Z,31.34
2024-05-09T13:18:06.207Z,31.47
2024-05-09T13:20:36.091Z,32.03
2024-05-09T13:23:05.432Z,33.24
2024-05-09T13:25:36.524Z,32.87
2024-05-09T13:28:04.698Z,31.55
2024-05-09T13:30:39.013Z,31.42
2024-05-09T13:33:11.523Z,31.02
2024-05-09T13:35:45.566Z,30.64
2024-05-09T13:38:20.940Z,30.45
2024-05-09T13:40:49.365Z,30.76
2024-05-09T13:43:18.536Z,31.20
2024-05-09T13:45:46.827Z,30.70
2024-05-09T13:48:14.525Z,30.29
2024-05-09T13:50:42.097Z,30.75
2024-05-09T13:53:09.594Z,30.46
2024-05-09T13:55:38.130Z,31.14
2024-05-09T13:58:06.312Z,31.72
2024-05-09T14:00:44.126Z,31.99
2024-05-09T14:03:17.018Z,31.97
2024-05-09T14:05:46.606Z,31.96
2024-05-09T14:08:15.607Z,32.85
2024-05-09T14:10:46.716Z,32.06
2024-05-09T14:13:14.873Z,31.26
2024-05-09T14:15:42.462Z,31.01
2024-05-09T14:18:13.246Z,31.14
2024-05-09T14:20:42.695Z,31.56
2024-05-09T14:23:10.430Z,31.52
2024-05-09T14:25:42.107Z,31.45
2024-05-09T14:28:12.437Z,31.51
2024-05-09T14:30:41.512Z,31.11
2024-05-09T14:33:09.734Z,31.43
2024-05-09T14:35:38.653Z,31.10
2024-05-09T14:38:07.500Z,30.07
2024-05-09T14:40:41.363Z,29.90
2024-05-09T14:43:12.496Z,30.95
2024-05-09T14:45:40.769Z,30.01
2024-05-09T14:48:08.605Z,30.40
2024-05-09T14:50:39.211Z,30.15
2024-05-09T14:53:08.820Z,30.17
2024-05-09T14:55:37.578Z,30.21
2024-05-09T14:58:09.759Z,30.37
2024-05-09T15:00:41.493Z,29.74
2024-05-09T15:03:12.614Z,29.99
2024-05-09T15:05:40.453Z,29.80
2024-05-09T15:08:08.236Z,29.69
2024-05-09T15:10:37.183Z,29.79
2024-05-09T15:13:07.138Z,29.15
2024-05-09T15:15:36.822Z,29.43
2024-05-09T15:18:06.890Z,29.92
2024-05-09T15:20:36.936Z,29.53
2024-05-09T15:23:06.398Z,29.83
2024-05-09T15:25:34.989Z,29.73
2024-05-09T15:28:02.816Z,29.10
2024-05-09T15:30:33.159Z,29.24
2024-05-09T15:33:03.375Z,29.02
2024-05-09T15:35:31.314Z,28.77
2024-05-09T15:37:59.041Z,28.87
2024-05-09T15:40:35.632Z,29.30
2024-05-09T15:43:07.977Z,28.99
2024-05-09T15:45:36.088Z,29.03
2024-05-09T15:48:04.528Z,28.50
2024-05-09T15:50:38.210Z,29.01
2024-05-09T15:53:09.883Z,28.40
2024-05-09T15:55:38.509Z,28.82
2024-05-09T15:58:06.832Z,29.08
2024-05-09T16:00:39.371Z,29.65
2024-05-09T16:03:10.791Z,29.73
2024-05-09T16:05:39.269Z,29.66
2024-05-09T16:08:07.603Z,30.16
2024-05-09T16:10:36.466Z,30.73
2024-05-09T16:13:04.972Z,31.16
2024-05-09T16:15:32.616Z,30.24
2024-05-09T16:18:00.749Z,30.46
2024-05-09T16:20:37.976Z,30.05
2024-05-09T16:23:08.934Z,30.67
2024-05-09T16:25:37.187Z,30.47
2024-05-09T16:28:08.369Z,30.92
2024-05-09T16:30:39.407Z,31.40
2024-05-09T16:33:07.885Z,31.38
2024-05-09T16:35:36.886Z,31.53
2024-05-09T16:38:08.439Z,31.27
2024-05-09T16:40:39.815Z,31.31
2024-05-09T16:43:10.450Z,31.94
2024-05-09T16:45:39.366Z,32.47
2024-05-09T16:48:07.629Z,32.69
2024-05-09T16:50:36.611Z,32.58
2024-05-09T16:53:05.636Z,33.26
2024-05-09T16:55:34.735Z,33.41
2024-05-09T16:58:03.241Z,33.00
2024-05-09T17:00:39.362Z,32.55
2024-05-09T17:03:12.855Z,33.10
2024-05-09T17:05:41.751Z,33.51
2024-05-09T17:08:10.145Z,34.29
2024-05-09T17:10:39.046Z,34.35
2024-05-09T17:13:07.803Z,34.06
2024-05-09T17:15:37.339Z,34.45
2024-05-09T17:18:06.583Z,34.80
2024-05-09T17:20:36.778Z,35.06
2024-05-09T17:23:06.237Z,35.39
2024-05-09T17:25:34.666Z,35.95
2024-05-09T17:28:07.134Z,35.95
2024-05-09T17:30:38.026Z,35.74
2024-05-09T17:33:08.244Z,35.59
2024-05-09T17:35:36.888Z,35.96
2024-05-09T17:38:07.565Z,35.56
2024-05-09T17:40:37.261Z,35.39
2024-05-09T17:43:08.700Z,35.01
2024-05-09T17:45:39.690Z,35.90
2024-05-09T17:48:09.567Z,36.06
2024-05-09T17:50:38.112Z,35.68
2024-05-09T17:53:06.436Z,35.79
2024-05-09T17:55:35.104Z,35.71
2024-05-09T17:58:03.583Z,35.63
2024-05-09T18:00:37.951Z,35.71
2024-05-09T18:03:11.018Z,35.70
2024-05-09T18:05:39.542Z,36.08
2024-05-09T18:08:08.030Z,36.11
2024-05-09T18:10:38.765Z,35.91
2024-05-09T18:13:08.628Z,36.22
2024-05-09T18:15:37.187Z,36.52
2024-05-09T18:18:05.453Z,36.77
2024-05-09T18:20:41.442Z,37.36
2024-05-09T18:23:14.252Z,37.73
2024-05-09T18:25:42.977Z,38.14
2024-05-09T18:28:10.669Z,38.59
2024-05-09T18:30:38.751Z,38.89
2024-05-09T18:33:07.995Z,39.36
2024-05-09T18:35:36.505Z,39.28
2024-05-09T18:38:06.040Z,39.81
2024-05-09T18:40:36.686Z,40.17
2024-05-09T18:43:07.560Z,40.70
2024-05-09T18:45:38.028Z,40.84
2024-05-09T18:48:08.172Z,40.97
2024-05-09T18:50:39.449Z,41.37
2024-05-09T18:53:10.674Z,40.81
2024-05-09T18:55:39.374Z,41.26
2024-05-09T18:58:07.092Z,41.41
2024-05-09T19:00:37.949Z,41.73
2024-05-09T19:03:10.467Z,42.17
2024-05-09T19:05:41.475Z,42.27
2024-05-09T19:08:09.537Z,42.46
2024-05-09T19:10:37.496Z,42.63
2024-05-09T19:13:09.338Z,42.55
2024-05-09T19:15:40.751Z,42.43
2024-05-09T19:18:09.561Z,42.35
2024-05-09T19:20:37.784Z,42.93
2024-05-09T19:23:06.408Z,43.04
2024-05-09T19:25:34.876Z,43.16
2024-05-09T19:28:03.143Z,43.53
2024-05-09T19:30:38.560Z,43.64
2024-05-09T19:33:11.149Z,44.04
2024-05-09T19:35:39.859Z,43.93
2024-05-09T19:38:07.553Z,44.34
2024-05-09T19:40:35.793Z,44.49
2024-05-09T19:43:04.763Z,44.52
2024-05-09T19:45:34.598Z,44.65
2024-05-09T19:48:03.504Z,44.61
2024-05-09T19:50:39.322Z,44.48
2024-05-09T19:53:11.282Z,44.51
2024-05-09T19:55:39.742Z,44.47
2024-05-09T19:58:08.656Z,44.69
2024-05-09T20:00:39.454Z,44.93
2024-05-09T20:03:10.698Z,44.88
2024-05-09T20:05:39.259Z,45.07
2024-05-09T20:08:07.407Z,45.36
2024-05-09T20:10:36.262Z,45.63
2024-05-09T20:13:06.392Z,45.56
2024-05-09T20:15:35.572Z,46.38
2024-05-09T20:18:03.793Z,46.88
2024-05-09T20:20:38.021Z,46.49
2024-05-09T20:23:10.233Z,46.21
2024-05-09T20:25:38.043Z,46.11
2024-05-09T20:28:08.400Z,45.90
2024-05-09T20:30:36.663Z,45.53
2024-05-09T20:33:07.087Z,45.41
2024-05-09T20:35:36.196Z,45.62
2024-05-09T20:38:04.451Z,45.78
2024-05-09T20:40:36.265Z,46.12
2024-05-09T20:43:07.963Z,46.06
2024-05-09T20:45:36.106Z,45.97
2024-05-09T20:48:04.432Z,45.93
2024-05-09T20:50:37.972Z,45.93
2024-05-09T20:53:09.518Z,45.75
2024-05-09T20:55:37.312Z,45.41
2024-05-09T20:58:05.122Z,45.85
2024-05-09T21:00:40.135Z,46.33
2024-05-09T21:05:35.285Z,47.73
2024-05-09T21:08:03.255Z,47.11
2024-05-09T21:10:33.338Z,47.03
2024-05-09T21:13:02.778Z,46.59
2024-05-09T21:15:31.569Z,46.86
2024-05-09T21:17:59.550Z,46.90
2024-05-09T21:22:57.848Z,47.44
2024-05-09T21:25:25.855Z,47.49
2024-05-09T21:27:53.451Z,47.72
2024-05-09T21:30:31.646Z,47.88
2024-05-09T21:33:13.468Z,47.78
2024-05-09T21:35:43.449Z,48.09
2024-05-09T21:38:11.376Z,48.41
2024-05-09T21:40:39.161Z,48.48
2024-05-09T21:43:07.194Z,48.24
2024-05-09T21:45:35.353Z,48.16
2024-05-09T21:48:03.502Z,48.85
2024-05-09T21:50:37.187Z,49.75
2024-05-09T21:53:09.042Z,49.59
2024-05-09T21:55:36.530Z,49.66
2024-05-09T21:58:04.282Z,49.78
2024-05-09T22:00:36.624Z,49.34
2024-05-09T22:03:10.521Z,49.15
2024-05-09T22:05:41.625Z,48.79
2024-05-09T22:08:09.572Z,49.31
2024-05-09T22:10:37.567Z,49.53
2024-05-09T22:13:06.370Z,49.97
2024-05-09T22:15:35.458Z,49.92
2024-05-09T22:18:03.967Z,49.38
2024-05-09T22:20:37.095Z,49.10
2024-05-09T22:23:08.339Z,48.95
2024-05-09T22:25:38.322Z,48.63
2024-05-09T22:28:06.301Z,48.24
2024-05-09T22:30:37.929Z,48.09
2024-05-09T22:33:08.438Z,48.01
2024-05-09T22:35:37.056Z,48.14
2024-05-09T22:38:04.656Z,48.89
2024-05-09T22:40:41.697Z,49.68
2024-05-09T22:43:23.755Z,50.10
2024-05-09T22:45:54.577Z,50.96
2024-05-09T22:48:23.684Z,51.16
2024-05-09T22:50:51.860Z,50.93
2024-05-09T22:53:21.518Z,50.49
2024-05-09T22:55:48.899Z,49.72
2024-05-09T22:58:16.418Z,49.63
2024-05-09T23:00:44.041Z,49.59
2024-05-09T23:03:11.733Z,49.56
2024-05-09T23:05:39.458Z,50.03
2024-05-09T23:08:07.184Z,50.13
2024-05-09T23:10:37.605Z,50.13
2024-05-09T23:13:08.917Z,49.53
2024-05-09T23:15:38.468Z,49.45
2024-05-09T23:18:07.071Z,49.97
2024-05-09T23:20:38.559Z,50.33
2024-05-09T23:23:08.612Z,50.62
2024-05-09T23:25:36.614Z,50.65
2024-05-09T23:28:04.487Z,50.29
2024-05-09T23:30:37.927Z,50.10
2024-05-09T23:33:09.705Z,50.02
2024-05-09T23:35:38.212Z,49.93
2024-05-09T23:38:05.663Z,49.61
2024-05-09T23:40:39.315Z,49.30
2024-05-09T23:43:10.170Z,49.05
2024-05-09T23:45:38.101Z,49.01
2024-05-09T23:48:06.138Z,48.93
2024-05-09T23:50:37.006Z,49.83
2024-05-09T23:53:07.753Z,51.16
2024-05-09T23:55:36.695Z,51.39
2024-05-09T23:58:04.384Z,50.51
